createdAt,value
2023-12-29T00:01:32.028Z,5.69
2023-12-29T00:04:04.065Z,5.70
2023-12-29T00:06:49.011Z,5.68
2023-12-29T00:09:25.234Z,5.65
2023-12-29T00:11:56.864Z,5.63
2023-12-29T00:14:28.546Z,5.60
2023-12-29T00:17:00.939Z,5.56
2023-12-29T00:19:32.802Z,5.52
2023-12-29T00:22:05.225Z,5.51
2023-12-29T00:24:37.167Z,5.50
2023-12-29T00:27:08.990Z,5.47
2023-12-29T00:29:40.798Z,5.44
2023-12-29T00:32:12.552Z,5.44
2023-12-29T00:34:44.250Z,5.42
2023-12-29T00:37:16.798Z,5.41
2023-12-29T00:39:48.624Z,5.39
2023-12-29T00:42:20.267Z,5.36
2023-12-29T00:44:52.004Z,5.34
2023-12-29T00:47:25.078Z,5.35
2023-12-29T00:49:56.922Z,5.35
2023-12-29T00:52:33.176Z,5.34
2023-12-29T00:55:06.414Z,5.34
2023-12-29T00:57:39.262Z,5.31
2023-12-29T01:00:16.895Z,5.30
2023-12-29T01:02:48.521Z,5.28
2023-12-29T01:05:20.738Z,5.27
2023-12-29T01:07:52.419Z,5.28
2023-12-29T01:10:24.081Z,5.29
2023-12-29T01:12:55.680Z,5.30
2023-12-29T01:15:27.511Z,5.30
2023-12-29T01:18:00.042Z,5.30
2023-12-29T01:20:32.209Z,5.29
2023-12-29T01:23:03.922Z,5.24
2023-12-29T01:25:35.768Z,5.29
2023-12-29T01:28:07.509Z,5.29
2023-12-29T01:30:39.174Z,5.29
2023-12-29T01:33:11.169Z,5.29
2023-12-29T01:35:43.223Z,5.29
2023-12-29T01:38:15.442Z,5.26
2023-12-29T01:40:47.539Z,5.25
2023-12-29T01:43:20.489Z,5.25
2023-12-29T01:45:57.761Z,5.24
2023-12-29T01:48:30.161Z,5.22
2023-12-29T01:51:02.330Z,5.23
2023-12-29T01:53:42.741Z,5.22
2023-12-29T01:56:21.845Z,5.21
2023-12-29T01:58:53.690Z,5.20
2023-12-29T02:01:25.437Z,5.17
2023-12-29T02:03:58.196Z,5.14
2023-12-29T02:06:30.735Z,5.11
2023-12-29T02:09:06.319Z,5.09
2023-12-29T02:11:39.398Z,5.07
2023-12-29T02:14:12.209Z,5.04
2023-12-29T02:17:03.985Z,5.02
2023-12-29T02:19:43.392Z,5.00
2023-12-29T02:22:16.483Z,4.97
2023-12-29T02:24:49.291Z,4.95
2023-12-29T02:27:53.286Z,4.95
2023-12-29T02:30:36.413Z,4.93
2023-12-29T02:33:12.338Z,4.89
2023-12-29T02:35:46.599Z,4.89
2023-12-29T02:38:18.416Z,4.86
2023-12-29T02:40:50.376Z,4.85
2023-12-29T02:43:22.165Z,4.85
2023-12-29T02:45:54.056Z,4.84
2023-12-29T02:48:25.962Z,4.83
2023-12-29T02:50:57.630Z,4.85
2023-12-29T02:53:29.437Z,4.85
2023-12-29T02:56:01.152Z,4.83
2023-12-29T02:58:32.849Z,4.83
2023-12-29T03:01:04.806Z,4.83
2023-12-29T03:03:36.589Z,4.82
2023-12-29T03:06:08.569Z,4.84
2023-12-29T03:08:40.214Z,4.86
2023-12-29T03:11:11.887Z,4.90
2023-12-29T03:13:43.556Z,4.94
2023-12-29T03:16:16.138Z,4.99
2023-12-29T03:18:48.951Z,5.03
2023-12-29T03:21:20.737Z,5.06
2023-12-29T03:23:52.430Z,5.07
2023-12-29T03:26:24.299Z,5.11
2023-12-29T03:28:56.254Z,5.15
2023-12-29T03:31:28.141Z,5.17
2023-12-29T03:33:59.961Z,5.18
2023-12-29T03:36:31.597Z,5.20
2023-12-29T03:39:04.021Z,5.21
2023-12-29T03:41:35.638Z,5.22
2023-12-29T03:44:07.466Z,5.21
2023-12-29T03:46:40.580Z,5.17
2023-12-29T03:49:12.238Z,5.11
2023-12-29T03:51:43.936Z,5.06
2023-12-29T03:54:15.975Z,5.03
2023-12-29T03:56:48.249Z,5.00
2023-12-29T03:59:19.808Z,4.96
2023-12-29T04:01:51.492Z,4.95
2023-12-29T04:04:23.193Z,4.93
2023-12-29T04:06:54.983Z,4.93
2023-12-29T04:09:26.569Z,4.92
2023-12-29T04:11:58.240Z,4.90
2023-12-29T04:14:29.861Z,4.90
2023-12-29T04:17:04.678Z,4.87
2023-12-29T04:19:36.299Z,4.87
2023-12-29T04:22:09.021Z,4.89
2023-12-29T04:24:41.545Z,4.87
2023-12-29T04:27:13.260Z,4.91
2023-12-29T04:29:46.487Z,4.92
2023-12-29T04:32:18.143Z,4.93
2023-12-29T04:34:49.950Z,4.94
2023-12-29T04:37:21.714Z,4.96
2023-12-29T04:39:53.588Z,4.96
2023-12-29T04:42:25.500Z,4.96
2023-12-29T04:44:57.279Z,4.95
2023-12-29T04:47:29.060Z,4.96
2023-12-29T04:50:01.086Z,4.96
2023-12-29T04:52:33.469Z,4.96
2023-12-29T04:55:05.465Z,4.96
2023-12-29T04:57:37.222Z,5.01
2023-12-29T05:00:09.518Z,5.07
2023-12-29T05:02:41.155Z,5.10
2023-12-29T05:05:13.034Z,5.14
2023-12-29T05:07:44.920Z,5.17
2023-12-29T05:10:16.805Z,5.21
2023-12-29T05:12:48.788Z,5.25
2023-12-29T05:15:20.753Z,5.29
2023-12-29T05:17:53.260Z,5.33
2023-12-29T05:20:25.258Z,5.36
2023-12-29T05:22:56.942Z,5.36
2023-12-29T05:25:28.540Z,5.36
2023-12-29T05:28:00.556Z,5.36
2023-12-29T05:30:33.726Z,5.35
2023-12-29T05:33:05.840Z,5.36
2023-12-29T05:35:37.580Z,5.36
2023-12-29T05:38:09.171Z,5.36
2023-12-29T05:40:40.868Z,5.35
2023-12-29T05:43:12.634Z,5.35
2023-12-29T05:45:44.347Z,5.33
2023-12-29T05:48:16.464Z,5.32
2023-12-29T05:50:48.249Z,5.35
2023-12-29T05:53:20.084Z,5.38
2023-12-29T05:55:51.820Z,5.40
2023-12-29T05:58:23.437Z,5.44
2023-12-29T06:01:00.224Z,5.47
2023-12-29T06:03:32.363Z,5.47
2023-12-29T06:06:04.624Z,5.46
2023-12-29T06:08:36.480Z,5.46
2023-12-29T06:11:08.413Z,5.48
2023-12-29T06:13:40.005Z,5.48
2023-12-29T06:16:18.873Z,5.48
2023-12-29T06:18:50.765Z,5.47
2023-12-29T06:21:22.725Z,5.44
2023-12-29T06:23:54.396Z,5.44
2023-12-29T06:26:26.176Z,5.42
2023-12-29T06:28:57.795Z,5.43
2023-12-29T06:31:29.621Z,5.46
2023-12-29T06:34:01.891Z,5.50
2023-12-29T06:36:34.085Z,5.53
2023-12-29T06:39:05.987Z,5.54
2023-12-29T06:41:37.805Z,5.55
2023-12-29T06:44:09.502Z,5.56
2023-12-29T06:46:41.711Z,5.57
2023-12-29T06:49:13.511Z,5.58
2023-12-29T06:51:45.964Z,5.58
2023-12-29T06:54:17.708Z,5.58
2023-12-29T06:56:49.953Z,5.59
2023-12-29T06:59:22.156Z,5.62
2023-12-29T07:01:53.935Z,5.62
2023-12-29T07:04:25.827Z,5.62
2023-12-29T07:06:58.126Z,5.65
2023-12-29T07:09:29.878Z,5.68
2023-12-29T07:12:01.469Z,5.73
2023-12-29T07:14:33.125Z,5.74
2023-12-29T07:17:05.306Z,5.72
2023-12-29T07:19:40.274Z,5.71
2023-12-29T07:22:12.329Z,5.69
2023-12-29T07:24:44.367Z,5.68
2023-12-29T07:27:16.182Z,5.67
2023-12-29T07:29:47.796Z,5.66
2023-12-29T07:32:19.700Z,5.64
2023-12-29T07:34:51.698Z,5.61
2023-12-29T07:37:23.658Z,5.61
2023-12-29T07:39:55.423Z,5.61
2023-12-29T07:42:27.234Z,5.62
2023-12-29T07:44:58.835Z,5.62
2023-12-29T07:47:30.822Z,5.62
2023-12-29T07:50:03.265Z,5.65
2023-12-29T07:52:35.502Z,5.67
2023-12-29T07:55:08.073Z,5.68
2023-12-29T07:57:39.811Z,5.68
2023-12-29T08:00:12.998Z,5.69
2023-12-29T08:02:44.673Z,5.70
2023-12-29T08:05:18.147Z,5.73
2023-12-29T08:07:50.033Z,5.77
2023-12-29T08:10:21.850Z,5.82
2023-12-29T08:12:53.914Z,5.86
2023-12-29T08:15:25.730Z,5.88
2023-12-29T08:18:00.332Z,5.88
2023-12-29T08:20:34.886Z,5.90
2023-12-29T08:23:06.576Z,5.91
2023-12-29T08:25:38.907Z,5.92
2023-12-29T08:28:10.660Z,5.93
2023-12-29T08:30:42.555Z,5.95
2023-12-29T08:33:14.924Z,5.97
2023-12-29T08:35:49.435Z,5.98
2023-12-29T08:38:21.229Z,5.99
2023-12-29T08:40:53.936Z,6.02
2023-12-29T08:43:26.155Z,6.05
2023-12-29T08:45:58.332Z,6.08
2023-12-29T08:48:30.325Z,6.11
2023-12-29T08:51:02.633Z,6.15
2023-12-29T08:53:36.921Z,6.18
2023-12-29T08:56:08.554Z,6.20
2023-12-29T08:58:40.502Z,6.22
2023-12-29T09:01:12.242Z,6.25
2023-12-29T09:03:44.240Z,6.27
2023-12-29T09:06:17.028Z,6.25
2023-12-29T09:08:49.392Z,6.23
2023-12-29T09:11:21.203Z,6.24
2023-12-29T09:13:53.122Z,6.21
2023-12-29T09:16:24.821Z,6.19
2023-12-29T09:18:56.905Z,6.17
2023-12-29T09:21:28.719Z,6.16
2023-12-29T09:24:00.546Z,6.13
2023-12-29T09:26:32.171Z,6.09
2023-12-29T09:29:03.900Z,6.07
2023-12-29T09:31:37.076Z,6.02
2023-12-29T09:34:08.845Z,5.99
2023-12-29T09:36:40.625Z,5.99
2023-12-29T09:39:12.309Z,5.98
2023-12-29T09:41:47.823Z,5.97
2023-12-29T09:44:23.201Z,5.96
2023-12-29T09:46:56.053Z,5.95
2023-12-29T09:49:32.371Z,5.95
2023-12-29T09:52:05.222Z,5.94
2023-12-29T09:54:38.697Z,5.92
2023-12-29T10:04:26.566Z,5.92
2023-12-29T10:07:05.831Z,5.90
2023-12-29T10:09:40.638Z,5.91
2023-12-29T10:12:13.798Z,5.92
2023-12-29T10:15:15.675Z,5.94
2023-12-29T10:18:08.680Z,5.99
2023-12-29T10:20:51.547Z,6.06
2023-12-29T10:23:34.666Z,6.12
2023-12-29T10:26:06.817Z,6.17
2023-12-29T10:28:38.856Z,6.22
2023-12-29T10:31:16.074Z,6.24
2023-12-29T10:33:52.252Z,6.26
2023-12-29T10:36:24.150Z,6.28
2023-12-29T10:39:11.387Z,6.32
2023-12-29T10:41:43.248Z,6.34
2023-12-29T10:44:15.145Z,6.36
2023-12-29T10:46:46.961Z,6.40
2023-12-29T10:49:19.682Z,6.43
2023-12-29T10:51:51.933Z,6.50
2023-12-29T10:54:27.205Z,6.52
2023-12-29T10:57:06.432Z,6.57
2023-12-29T10:59:38.485Z,6.58
2023-12-29T11:02:16.473Z,6.60
2023-12-29T11:04:48.679Z,6.62
2023-12-29T11:07:37.904Z,6.66
2023-12-29T11:10:10.914Z,6.77
2023-12-29T11:12:43.527Z,6.85
2023-12-29T11:15:16.717Z,6.94
2023-12-29T11:17:51.539Z,6.99
2023-12-29T11:20:24.529Z,7.00
2023-12-29T11:22:56.417Z,6.99
2023-12-29T11:25:29.187Z,7.04
2023-12-29T11:28:01.778Z,7.05
2023-12-29T11:30:47.176Z,7.02
2023-12-29T11:33:24.768Z,6.96
2023-12-29T11:36:23.762Z,6.92
2023-12-29T11:39:15.153Z,6.87
2023-12-29T11:41:52.838Z,6.87
2023-12-29T11:44:29.161Z,6.86
2023-12-29T11:47:03.608Z,6.84
2023-12-29T11:50:05.013Z,6.85
2023-12-29T11:52:38.402Z,6.84
2023-12-29T11:55:10.910Z,6.84
2023-12-29T11:57:43.271Z,6.85
2023-12-29T12:00:17.669Z,6.86
2023-12-29T12:02:52.528Z,6.86
2023-12-29T12:05:47.679Z,6.86
2023-12-29T12:08:30.365Z,6.86
2023-12-29T12:11:30.117Z,6.85
2023-12-29T12:14:02.849Z,6.88
2023-12-29T12:16:43.674Z,6.89
2023-12-29T12:19:16.719Z,6.90
2023-12-29T12:21:50.128Z,6.90
2023-12-29T12:24:22.056Z,6.89
2023-12-29T12:26:53.900Z,6.93
2023-12-29T12:29:26.643Z,6.97
2023-12-29T12:31:59.151Z,6.99
2023-12-29T12:34:38.581Z,7.02
2023-12-29T12:37:10.414Z,7.03
2023-12-29T12:39:43.135Z,7.04
2023-12-29T12:42:16.034Z,7.06
2023-12-29T12:45:11.225Z,7.07
2023-12-29T12:47:51.476Z,7.07
2023-12-29T12:53:41.481Z,7.04
2023-12-29T12:56:16.573Z,7.03
2023-12-29T12:58:48.236Z,7.03
2023-12-29T13:01:21.025Z,7.02
2023-12-29T13:03:54.278Z,7.01
2023-12-29T13:06:26.789Z,7.01
2023-12-29T13:08:59.359Z,7.00
2023-12-29T13:11:31.206Z,7.00
2023-12-29T13:14:03.456Z,6.99
2023-12-29T13:16:37.603Z,6.99
2023-12-29T13:19:26.523Z,6.97
2023-12-29T13:21:58.752Z,6.94
2023-12-29T13:24:30.852Z,6.91
2023-12-29T13:27:07.303Z,6.89
2023-12-29T13:29:40.363Z,6.86
2023-12-29T13:32:19.772Z,6.84
2023-12-29T13:35:01.000Z,6.81
2023-12-29T13:37:46.135Z,6.79
2023-12-29T13:40:57.303Z,6.80
2023-12-29T13:43:32.048Z,6.82
2023-12-29T13:46:04.952Z,6.81
2023-12-29T13:48:37.331Z,6.77
2023-12-29T13:51:09.347Z,6.73
2023-12-29T13:53:41.967Z,6.67
2023-12-29T13:56:13.967Z,6.67
2023-12-29T13:58:52.936Z,6.66
2023-12-29T14:01:24.814Z,6.63
2023-12-29T14:04:00.756Z,6.63
2023-12-29T14:06:54.447Z,6.63
2023-12-29T14:09:26.147Z,6.62
2023-12-29T14:11:57.827Z,6.58
2023-12-29T14:14:29.612Z,6.56
2023-12-29T14:17:01.242Z,6.54
2023-12-29T14:19:37.996Z,6.51
2023-12-29T14:22:09.934Z,6.50
2023-12-29T14:24:41.945Z,6.50
2023-12-29T14:27:13.903Z,6.52
2023-12-29T14:29:45.601Z,6.53
2023-12-29T14:32:17.370Z,6.55
2023-12-29T14:34:54.268Z,6.56
2023-12-29T14:37:27.179Z,6.56
2023-12-29T14:40:43.936Z,6.54
2023-12-29T14:43:36.413Z,6.49
2023-12-29T14:46:18.995Z,6.43
2023-12-29T14:48:56.064Z,6.37
2023-12-29T14:51:43.954Z,6.32
2023-12-29T14:54:47.737Z,6.26
2023-12-29T14:57:40.166Z,6.19
2023-12-29T15:00:16.010Z,6.19
2023-12-29T15:03:22.725Z,6.18
2023-12-29T15:06:17.087Z,6.16
2023-12-29T15:09:32.563Z,6.16
2023-12-29T15:12:07.362Z,6.15
2023-12-29T15:14:39.280Z,6.21
2023-12-29T15:17:37.037Z,6.28
2023-12-29T15:20:35.533Z,6.36
2023-12-29T15:23:10.911Z,6.42
2023-12-29T15:26:07.742Z,6.45
2023-12-29T15:29:26.550Z,6.47
2023-12-29T15:32:29.097Z,6.49
2023-12-29T15:35:00.938Z,6.48
2023-12-29T15:37:55.719Z,6.48
2023-12-29T15:40:42.858Z,6.45
2023-12-29T15:43:38.264Z,6.43
2023-12-29T15:46:45.345Z,6.41
2023-12-29T15:50:11.134Z,6.40
2023-12-29T15:52:44.314Z,6.39
2023-12-29T15:55:41.078Z,6.39
2023-12-29T15:59:01.249Z,6.38
2023-12-29T16:01:53.009Z,6.35
2023-12-29T16:05:04.741Z,6.35
2023-12-29T16:07:51.184Z,6.29
2023-12-29T16:10:58.984Z,6.26
2023-12-29T16:13:50.243Z,6.25
2023-12-29T16:16:51.661Z,6.23
2023-12-29T16:19:44.866Z,6.23
2023-12-29T16:22:59.575Z,6.20
2023-12-29T16:25:55.388Z,6.20
2023-12-29T16:28:57.435Z,6.17
2023-12-29T16:31:38.661Z,6.15
2023-12-29T16:34:29.891Z,6.19
2023-12-29T16:37:14.749Z,6.17
2023-12-29T16:40:27.296Z,6.12
2023-12-29T16:43:19.473Z,6.09
2023-12-29T16:46:11.250Z,6.13
2023-12-29T16:49:25.384Z,6.15
2023-12-29T16:52:39.475Z,6.14
2023-12-29T16:55:44.742Z,6.09
2023-12-29T16:58:17.987Z,6.08
2023-12-29T17:01:53.427Z,6.10
2023-12-29T17:04:44.916Z,6.06
2023-12-29T17:08:03.756Z,6.07
2023-12-29T17:10:42.813Z,6.08
2023-12-29T17:13:15.843Z,6.05
2023-12-29T17:15:48.541Z,6.01
2023-12-29T17:18:22.916Z,5.99
2023-12-29T17:20:54.651Z,5.98
2023-12-29T17:23:26.994Z,5.94
2023-12-29T17:26:02.345Z,5.92
2023-12-29T17:28:35.022Z,5.88
2023-12-29T17:31:10.819Z,5.87
2023-12-29T17:33:42.789Z,5.84
2023-12-29T17:36:14.684Z,5.79
2023-12-29T17:38:46.956Z,5.76
2023-12-29T17:41:19.190Z,5.75
2023-12-29T17:43:51.030Z,5.73
2023-12-29T17:46:23.328Z,5.70
2023-12-29T17:48:56.333Z,5.69
2023-12-29T17:51:32.218Z,5.67
2023-12-29T17:54:04.481Z,5.65
2023-12-29T17:56:41.850Z,5.65
2023-12-29T17:59:15.761Z,5.63
2023-12-29T18:01:51.623Z,5.57
2023-12-29T18:04:23.746Z,5.59
2023-12-29T18:07:03.658Z,5.59
2023-12-29T18:09:40.782Z,5.60
2023-12-29T18:12:13.920Z,5.54
2023-12-29T18:14:46.786Z,5.56
2023-12-29T18:17:22.099Z,5.52
2023-12-29T18:19:53.967Z,5.53
2023-12-29T18:22:25.946Z,5.54
2023-12-29T18:24:57.848Z,5.53
2023-12-29T18:27:34.209Z,5.51
2023-12-29T18:30:06.778Z,5.49
2023-12-29T18:32:39.654Z,5.48
2023-12-29T18:35:11.642Z,5.46
2023-12-29T18:37:47.595Z,5.45
2023-12-29T18:40:20.270Z,5.44
2023-12-29T18:42:52.057Z,5.45
2023-12-29T18:45:23.712Z,5.46
2023-12-29T18:47:56.725Z,5.51
2023-12-29T18:50:29.518Z,5.55
2023-12-29T18:53:02.448Z,5.58
2023-12-29T18:55:34.818Z,5.56
2023-12-29T18:58:06.634Z,5.51
2023-12-29T19:00:38.397Z,5.54
2023-12-29T19:03:10.943Z,5.45
2023-12-29T19:05:44.161Z,5.44
2023-12-29T19:08:20.077Z,5.42
2023-12-29T19:10:52.150Z,5.45
2023-12-29T19:13:24.562Z,5.45
2023-12-29T19:15:56.817Z,5.42
2023-12-29T19:18:29.582Z,5.42
2023-12-29T19:21:04.613Z,5.43
2023-12-29T19:23:36.372Z,5.44
2023-12-29T19:26:08.142Z,5.44
2023-12-29T19:28:40.227Z,5.47
2023-12-29T19:31:12.241Z,5.42
2023-12-29T19:33:44.255Z,5.48
2023-12-29T19:36:19.030Z,5.49
2023-12-29T19:38:51.037Z,5.46
2023-12-29T19:41:25.033Z,5.42
2023-12-29T19:43:57.418Z,5.47
2023-12-29T19:46:29.757Z,5.46
2023-12-29T19:49:01.979Z,5.46
2023-12-29T19:51:34.770Z,5.48
2023-12-29T19:54:06.673Z,5.46
2023-12-29T19:56:39.659Z,5.48
2023-12-29T19:59:11.315Z,5.52
2023-12-29T20:01:51.110Z,5.51
2023-12-29T20:04:23.622Z,5.50
2023-12-29T20:07:05.471Z,5.51
2023-12-29T20:09:41.183Z,5.53
2023-12-29T20:12:20.487Z,5.56
2023-12-29T20:14:57.195Z,5.55
2023-12-29T20:17:31.230Z,5.52
2023-12-29T20:20:05.046Z,5.50
2023-12-29T20:25:27.305Z,5.46
2023-12-29T20:27:59.763Z,5.47
2023-12-29T20:30:31.548Z,5.49
2023-12-29T20:33:05.046Z,5.48
2023-12-29T20:35:40.957Z,5.47
2023-12-29T20:38:13.275Z,5.48
2023-12-29T20:40:44.936Z,5.47
2023-12-29T20:43:16.940Z,5.44
2023-12-29T20:45:48.677Z,5.39
2023-12-29T20:48:20.521Z,5.34
2023-12-29T20:50:55.633Z,5.29
2023-12-29T20:53:32.529Z,5.24
2023-12-29T20:56:08.042Z,5.20
2023-12-29T20:58:40.611Z,5.17
2023-12-29T21:01:13.153Z,5.13
2023-12-29T21:03:45.565Z,5.09
2023-12-29T21:06:22.374Z,5.07
2023-12-29T21:08:59.673Z,5.03
2023-12-29T21:11:31.842Z,5.02
2023-12-29T21:14:04.308Z,4.98
2023-12-29T21:16:37.300Z,4.98
2023-12-29T21:19:09.558Z,4.95
2023-12-29T21:21:41.985Z,4.94
2023-12-29T21:24:13.974Z,4.94
2023-12-29T21:26:46.268Z,4.91
2023-12-29T21:29:18.711Z,4.88
2023-12-29T21:31:50.947Z,4.86
2023-12-29T21:34:22.738Z,4.83
2023-12-29T21:36:56.806Z,4.85
2023-12-29T21:39:28.766Z,4.81
2023-12-29T21:42:00.972Z,4.82
2023-12-29T21:44:32.871Z,4.81
2023-12-29T21:47:04.886Z,4.81
2023-12-29T21:49:40.461Z,4.81
2023-12-29T21:52:12.287Z,4.83
2023-12-29T21:54:44.740Z,4.85
2023-12-29T21:57:17.143Z,4.84
2023-12-29T21:59:51.892Z,4.84
2023-12-29T22:02:23.482Z,4.80
2023-12-29T22:04:55.500Z,4.76
2023-12-29T22:07:27.737Z,4.76
2023-12-29T22:09:59.405Z,4.75
2023-12-29T22:12:33.937Z,4.75
2023-12-29T22:15:06.634Z,4.75
2023-12-29T22:17:38.688Z,4.80
2023-12-29T22:20:10.884Z,4.82
2023-12-29T22:22:44.005Z,4.82
2023-12-29T22:25:16.306Z,4.81
2023-12-29T22:27:48.245Z,4.78
2023-12-29T22:30:20.025Z,4.78
2023-12-29T22:32:52.058Z,4.73
2023-12-29T22:35:24.352Z,4.73
2023-12-29T22:37:56.066Z,4.73
2023-12-29T22:40:27.996Z,4.73
2023-12-29T22:43:01.093Z,4.74
2023-12-29T22:45:35.392Z,4.73
2023-12-29T22:48:07.866Z,4.68
2023-12-29T22:50:39.736Z,4.67
2023-12-29T22:53:11.346Z,4.66
2023-12-29T22:55:43.184Z,4.65
2023-12-29T22:58:14.907Z,4.65
2023-12-29T23:00:47.113Z,4.65
2023-12-29T23:03:20.433Z,4.66
